sensor_id;sensor_type;location;lat;lon;timestamp;pressure;altitude;pressure_sealevel;temperature;humidity
63190;BME280;49286;44.460;26.114;2023-07-31T00:00:13;99619.06;;;23.70;100.00
63190;BME280;49286;44.460;26.114;2023-07-31T00:02:38;99735.63;;;24.30;100.00
63190;BME280;49286;44.460;26.114;2023-07-31T00:05:04;99738.75;;;24.24;100.00
63190;BME280;49286;44.460;26.114;2023-07-31T00:07:30;99718.44;;;24.07;100.00
63190;BME280;49286;44.460;26.114;2023-07-31T00:09:55;99713.47;;;24.01;100.00
63190;BME280;49286;44.460;26.114;2023-07-31T00:12:22;99640.00;;;23.51;100.00
63190;BME280;49286;44.460;26.114;2023-07-31T00:14:47;99732.31;;;23.87;100.00
63190;BME280;49286;44.460;26.114;2023-07-31T00:17:13;99754.84;;;23.97;100.00
63190;BME280;49286;44.460;26.114;2023-07-31T00:19:38;99586.41;;;22.82;100.00
63190;BME280;49286;44.460;26.114;2023-07-31T00:22:04;99583.25;;;22.90;100.00
63190;BME280;49286;44.460;26.114;2023-07-31T00:24:30;99758.34;;;23.85;100.00
63190;BME280;49286;44.460;26.114;2023-07-31T00:26:55;99763.78;;;23.83;100.00
63190;BME280;49286;44.460;26.114;2023-07-31T00:29:20;99648.09;;;23.22;100.00
63190;BME280;49286;44.460;26.114;2023-07-31T00:31:46;99629.03;;;23.00;100.00
63190;BME280;49286;44.460;26.114;2023-07-31T00:34:11;99652.41;;;23.10;100.00
63190;BME280;49286;44.460;26.114;2023-07-31T00:36:37;99658.16;;;23.18;100.00
63190;BME280;49286;44.460;26.114;2023-07-31T00:39:02;99762.47;;;23.76;100.00
63190;BME280;49286;44.460;26.114;2023-07-31T00:41:29;99658.19;;;23.04;100.00
63190;BME280;49286;44.460;26.114;2023-07-31T00:43:55;99681.41;;;23.18;100.00
63190;BME280;49286;44.460;26.114;2023-07-31T00:46:21;99755.72;;;23.56;100.00
63190;BME280;49286;44.460;26.114;2023-07-31T00:48:46;99764.97;;;23.50;100.00
63190;BME280;49286;44.460;26.114;2023-07-31T00:51:12;99691.06;;;23.06;100.00
63190;BME280;49286;44.460;26.114;2023-07-31T00:53:38;99769.91;;;23.44;100.00
63190;BME280;49286;44.460;26.114;2023-07-31T00:56:04;99737.47;;;23.34;100.00
63190;BME280;49286;44.460;26.114;2023-07-31T00:58:30;99685.00;;;22.88;100.00
63190;BME280;49286;44.460;26.114;2023-07-31T01:00:56;99668.28;;;22.70;100.00
63190;BME280;49286;44.460;26.114;2023-07-31T01:03:21;99732.59;;;22.97;100.00
63190;BME280;49286;44.460;26.114;2023-07-31T01:06:15;99764.78;;;22.96;100.00
63190;BME280;49286;44.460;26.114;2023-07-31T01:08:51;99763.66;;;22.86;100.00
63190;BME280;49286;44.460;26.114;2023-07-31T01:11:25;99715.66;;;22.54;100.00
63190;BME280;49286;44.460;26.114;2023-07-31T01:13:53;99751.91;;;22.74;100.00
63190;BME280;49286;44.460;26.114;2023-07-31T01:16:19;99778.94;;;22.84;100.00
63190;BME280;49286;44.460;26.114;2023-07-31T01:18:45;99773.44;;;22.71;100.00
63190;BME280;49286;44.460;26.114;2023-07-31T01:26:12;99853.13;;;22.66;100.00
63190;BME280;49286;44.460;26.114;2023-07-31T01:28:45;99766.47;;;22.24;100.00
63190;BME280;49286;44.460;26.114;2023-07-31T01:31:16;99749.75;;;22.04;100.00
63190;BME280;49286;44.460;26.114;2023-07-31T01:33:42;99814.72;;;22.37;100.00
63190;BME280;49286;44.460;26.114;2023-07-31T01:36:08;99805.16;;;22.17;100.00
63190;BME280;49286;44.460;26.114;2023-07-31T01:38:33;99877.22;;;22.50;100.00
63190;BME280;49286;44.460;26.114;2023-07-31T01:40:59;99873.63;;;22.35;100.00
63190;BME280;49286;44.460;26.114;2023-07-31T01:43:24;99788.59;;;21.80;100.00
63190;BME280;49286;44.460;26.114;2023-07-31T01:45:50;99878.38;;;22.30;100.00
63190;BME280;49286;44.460;26.114;2023-07-31T01:48:15;99881.63;;;22.19;100.00
63190;BME280;49286;44.460;26.114;2023-07-31T01:50:41;99899.69;;;22.31;100.00
63190;BME280;49286;44.460;26.114;2023-07-31T01:53:06;99800.72;;;21.69;100.00
63190;BME280;49286;44.460;26.114;2023-07-31T01:55:32;99899.06;;;22.10;100.00
63190;BME280;49286;44.460;26.114;2023-07-31T01:57:57;99904.53;;;22.07;100.00
63190;BME280;49286;44.460;26.114;2023-07-31T02:00:23;99915.75;;;21.98;100.00
63190;BME280;49286;44.460;26.114;2023-07-31T02:02:48;99918.31;;;21.84;100.00
63190;BME280;49286;44.460;26.114;2023-07-31T02:05:13;99915.97;;;21.62;100.00
63190;BME280;49286;44.460;26.114;2023-07-31T02:07:39;99930.66;;;21.36;100.00
63190;BME280;49286;44.460;26.114;2023-07-31T02:10:05;99960.72;;;21.39;100.00
63190;BME280;49286;44.460;26.114;2023-07-31T02:12:30;99898.41;;;20.88;100.00
63190;BME280;49286;44.460;26.114;2023-07-31T02:14:57;100026.50;;;21.23;100.00
63190;BME280;49286;44.460;26.114;2023-07-31T02:17:22;100019.75;;;21.16;100.00
63190;BME280;49286;44.460;26.114;2023-07-31T02:19:48;99965.09;;;20.88;100.00
63190;BME280;49286;44.460;26.114;2023-07-31T02:22:14;100035.06;;;21.12;100.00
63190;BME280;49286;44.460;26.114;2023-07-31T02:24:39;100067.06;;;21.12;100.00
63190;BME280;49286;44.460;26.114;2023-07-31T02:27:05;100060.38;;;21.03;100.00
63190;BME280;49286;44.460;26.114;2023-07-31T02:29:30;100085.44;;;20.63;100.00
63190;BME280;49286;44.460;26.114;2023-07-31T02:31:56;100004.38;;;20.09;100.00
63190;BME280;49286;44.460;26.114;2023-07-31T02:34:21;100114.53;;;20.68;100.00
63190;BME280;49286;44.460;26.114;2023-07-31T02:36:47;100009.00;;;20.05;100.00
63190;BME280;49286;44.460;26.114;2023-07-31T02:39:12;100001.22;;;20.00;100.00
63190;BME280;49286;44.460;26.114;2023-07-31T02:41:38;100005.47;;;20.05;100.00
63190;BME280;49286;44.460;26.114;2023-07-31T02:44:03;99985.66;;;19.91;100.00
63190;BME280;49286;44.460;26.114;2023-07-31T02:46:29;100084.22;;;20.50;100.00
63190;BME280;49286;44.460;26.114;2023-07-31T02:48:54;99993.91;;;19.85;100.00
63190;BME280;49286;44.460;26.114;2023-07-31T02:51:20;100082.63;;;20.27;100.00
63190;BME280;49286;44.460;26.114;2023-07-31T02:53:47;100086.03;;;20.30;100.00
63190;BME280;49286;44.460;26.114;2023-07-31T02:56:13;99991.00;;;19.71;100.00
63190;BME280;49286;44.460;26.114;2023-07-31T02:58:38;100074.63;;;20.27;100.00
63190;BME280;49286;44.460;26.114;2023-07-31T03:01:04;99944.22;;;19.45;100.00
63190;BME280;49286;44.460;26.114;2023-07-31T03:03:29;99969.28;;;19.59;100.00
63190;BME280;49286;44.460;26.114;2023-07-31T03:05:55;99941.63;;;19.43;100.00
63190;BME280;49286;44.460;26.114;2023-07-31T03:08:20;100055.88;;;20.09;100.00
63190;BME280;49286;44.460;26.114;2023-07-31T03:10:46;100027.31;;;19.92;100.00
63190;BME280;49286;44.460;26.114;2023-07-31T03:13:11;99933.06;;;19.36;100.00
63190;BME280;49286;44.460;26.114;2023-07-31T03:15:37;99942.78;;;19.37;100.00
63190;BME280;49286;44.460;26.114;2023-07-31T03:18:02;99971.09;;;19.38;100.00
63190;BME280;49286;44.460;26.114;2023-07-31T03:20:28;100040.94;;;19.86;100.00
63190;BME280;49286;44.460;26.114;2023-07-31T03:22:53;100043.66;;;19.85;100.00
63190;BME280;49286;44.460;26.114;2023-07-31T03:25:19;100034.16;;;19.57;100.00
63190;BME280;49286;44.460;26.114;2023-07-31T03:27:44;100041.84;;;19.85;100.00
63190;BME280;49286;44.460;26.114;2023-07-31T03:30:10;100047.38;;;19.80;100.00
63190;BME280;49286;44.460;26.114;2023-07-31T03:32:35;100040.28;;;19.81;100.00
63190;BME280;49286;44.460;26.114;2023-07-31T03:35:01;99942.09;;;19.12;100.00
63190;BME280;49286;44.460;26.114;2023-07-31T03:37:27;100072.34;;;19.78;100.00
63190;BME280;49286;44.460;26.114;2023-07-31T03:39:52;99978.69;;;19.27;100.00
63190;BME280;49286;44.460;26.114;2023-07-31T03:42:18;99949.28;;;19.10;100.00
63190;BME280;49286;44.460;26.114;2023-07-31T03:44:43;100058.69;;;19.65;100.00
63190;BME280;49286;44.460;26.114;2023-07-31T03:47:08;100067.97;;;19.77;100.00
63190;BME280;49286;44.460;26.114;2023-07-31T03:49:34;99972.63;;;19.24;100.00
63190;BME280;49286;44.460;26.114;2023-07-31T03:51:59;99973.56;;;19.23;100.00
63190;BME280;49286;44.460;26.114;2023-07-31T03:54:25;100092.03;;;19.94;100.00
63190;BME280;49286;44.460;26.114;2023-07-31T03:56:50;99917.94;;;18.96;100.00
63190;BME280;49286;44.460;26.114;2023-07-31T03:59:16;99989.41;;;19.46;100.00
63190;BME280;49286;44.460;26.114;2023-07-31T04:01:41;100097.41;;;20.13;100.00
63190;BME280;49286;44.460;26.114;2023-07-31T04:04:07;99990.41;;;19.44;100.00
63190;BME280;49286;44.460;26.114;2023-07-31T04:06:32;99967.56;;;19.38;100.00
63190;BME280;49286;44.460;26.114;2023-07-31T04:08:57;99988.94;;;19.36;100.00
63190;BME280;49286;44.460;26.114;2023-07-31T04:11:23;100001.25;;;19.39;100.00
63190;BME280;49286;44.460;26.114;2023-07-31T04:13:48;100012.69;;;19.21;100.00
63190;BME280;49286;44.460;26.114;2023-07-31T04:16:14;100107.22;;;19.72;100.00
63190;BME280;49286;44.460;26.114;2023-07-31T04:18:39;99974.34;;;18.82;100.00
63190;BME280;49286;44.460;26.114;2023-07-31T04:21:05;100048.25;;;19.38;100.00
63190;BME280;49286;44.460;26.114;2023-07-31T04:23:30;100119.75;;;19.70;100.00
63190;BME280;49286;44.460;26.114;2023-07-31T04:25:56;100107.91;;;19.77;100.00
63190;BME280;49286;44.460;26.114;2023-07-31T04:28:21;100113.28;;;19.53;100.00
63190;BME280;49286;44.460;26.114;2023-07-31T04:30:47;100106.44;;;19.70;100.00
63190;BME280;49286;44.460;26.114;2023-07-31T04:33:12;100104.03;;;19.42;100.00
63190;BME280;49286;44.460;26.114;2023-07-31T04:35:38;99997.00;;;18.92;100.00
63190;BME280;49286;44.460;26.114;2023-07-31T04:38:03;100099.31;;;19.48;100.00
63190;BME280;49286;44.460;26.114;2023-07-31T04:40:29;100094.38;;;19.59;100.00
63190;BME280;49286;44.460;26.114;2023-07-31T04:42:54;100123.31;;;19.69;100.00
63190;BME280;49286;44.460;26.114;2023-07-31T04:45:20;100027.22;;;19.12;100.00
63190;BME280;49286;44.460;26.114;2023-07-31T04:47:45;100093.28;;;19.65;100.00
63190;BME280;49286;44.460;26.114;2023-07-31T04:50:10;100139.72;;;19.58;100.00
63190;BME280;49286;44.460;26.114;2023-07-31T04:52:36;100147.38;;;19.66;100.00
63190;BME280;49286;44.460;26.114;2023-07-31T04:55:01;100137.44;;;19.27;100.00
63190;BME280;49286;44.460;26.114;2023-07-31T04:57:28;100040.25;;;18.74;100.00
63190;BME280;49286;44.460;26.114;2023-07-31T04:59:53;100082.34;;;19.08;100.00
63190;BME280;49286;44.460;26.114;2023-07-31T05:02:18;100075.66;;;18.74;100.00
63190;BME280;49286;44.460;26.114;2023-07-31T05:04:44;100116.72;;;19.13;100.00
63190;BME280;49286;44.460;26.114;2023-07-31T05:07:09;100065.13;;;18.95;100.00
63190;BME280;49286;44.460;26.114;2023-07-31T05:09:35;100069.34;;;19.01;100.00
63190;BME280;49286;44.460;26.114;2023-07-31T05:12:00;100135.28;;;19.36;100.00
63190;BME280;49286;44.460;26.114;2023-07-31T05:14:26;100157.31;;;19.40;100.00
63190;BME280;49286;44.460;26.114;2023-07-31T05:16:51;100046.28;;;19.01;100.00
63190;BME280;49286;44.460;26.114;2023-07-31T05:19:17;100047.34;;;18.97;100.00
63190;BME280;49286;44.460;26.114;2023-07-31T05:21:43;100051.22;;;18.88;100.00
63190;BME280;49286;44.460;26.114;2023-07-31T05:24:10;100036.72;;;18.73;100.00
63190;BME280;49286;44.460;26.114;2023-07-31T05:26:36;100042.84;;;18.75;100.00
63190;BME280;49286;44.460;26.114;2023-07-31T05:29:01;100039.72;;;18.88;100.00
63190;BME280;49286;44.460;26.114;2023-07-31T05:31:28;100164.91;;;19.71;100.00
63190;BME280;49286;44.460;26.114;2023-07-31T05:33:53;100179.09;;;19.50;100.00
63190;BME280;49286;44.460;26.114;2023-07-31T05:36:19;100130.25;;;19.29;100.00
63190;BME280;49286;44.460;26.114;2023-07-31T05:38:44;100084.28;;;19.03;100.00
63190;BME280;49286;44.460;26.114;2023-07-31T05:41:11;100153.69;;;19.63;100.00
63190;BME280;49286;44.460;26.114;2023-07-31T05:43:37;100056.41;;;19.13;100.00
63190;BME280;49286;44.460;26.114;2023-07-31T05:46:02;100067.25;;;19.09;100.00
63190;BME280;49286;44.460;26.114;2023-07-31T05:48:28;100046.50;;;19.17;100.00
63190;BME280;49286;44.460;26.114;2023-07-31T05:50:54;100129.25;;;19.75;100.00
63190;BME280;49286;44.460;26.114;2023-07-31T05:53:19;100146.25;;;19.93;100.00
63190;BME280;49286;44.460;26.114;2023-07-31T05:55:45;100143.94;;;19.86;100.00
63190;BME280;49286;44.460;26.114;2023-07-31T05:58:10;100061.94;;;19.51;100.00
63190;BME280;49286;44.460;26.114;2023-07-31T06:00:36;100165.31;;;20.05;100.00
63190;BME280;49286;44.460;26.114;2023-07-31T06:03:01;100148.66;;;19.99;100.00
63190;BME280;49286;44.460;26.114;2023-07-31T06:05:31;100051.66;;;19.42;100.00
63190;BME280;49286;44.460;26.114;2023-07-31T06:07:57;100141.03;;;20.11;100.00
63190;BME280;49286;44.460;26.114;2023-07-31T06:10:23;100071.88;;;19.89;100.00
63190;BME280;49286;44.460;26.114;2023-07-31T06:13:00;100054.09;;;19.89;100.00
63190;BME280;49286;44.460;26.114;2023-07-31T06:15:27;100161.38;;;20.53;100.00
63190;BME280;49286;44.460;26.114;2023-07-31T06:17:52;100162.47;;;20.49;100.00
63190;BME280;49286;44.460;26.114;2023-07-31T06:20:18;100133.63;;;20.38;100.00
63190;BME280;49286;44.460;26.114;2023-07-31T06:22:44;100078.06;;;20.10;100.00
63190;BME280;49286;44.460;26.114;2023-07-31T06:25:09;100032.09;;;19.86;100.00
63190;BME280;49286;44.460;26.114;2023-07-31T06:27:35;100138.88;;;20.60;100.00
63190;BME280;49286;44.460;26.114;2023-07-31T06:30:00;100142.53;;;21.52;100.00
63190;BME280;49286;44.460;26.114;2023-07-31T06:32:26;100006.56;;;21.82;100.00
63190;BME280;49286;44.460;26.114;2023-07-31T06:34:51;100072.28;;;23.32;100.00
63190;BME280;49286;44.460;26.114;2023-07-31T06:37:17;99958.81;;;23.19;100.00
63190;BME280;49286;44.460;26.114;2023-07-31T06:39:42;100045.63;;;22.99;100.00
63190;BME280;49286;44.460;26.114;2023-07-31T06:42:07;99961.38;;;23.06;100.00
63190;BME280;49286;44.460;26.114;2023-07-31T06:44:33;99930.22;;;22.27;100.00
63190;BME280;49286;44.460;26.114;2023-07-31T06:46:59;99947.84;;;23.24;100.00
63190;BME280;49286;44.460;26.114;2023-07-31T06:49:24;99854.22;;;22.00;100.00
63190;BME280;49286;44.460;26.114;2023-07-31T06:51:49;100053.88;;;23.26;100.00
63190;BME280;49286;44.460;26.114;2023-07-31T06:54:15;100042.41;;;22.92;100.00
63190;BME280;49286;44.460;26.114;2023-07-31T06:56:40;99942.25;;;22.96;100.00
63190;BME280;49286;44.460;26.114;2023-07-31T06:59:06;100044.25;;;23.68;100.00
63190;BME280;49286;44.460;26.114;2023-07-31T07:01:31;100051.44;;;23.37;100.00
63190;BME280;49286;44.460;26.114;2023-07-31T07:03:57;100047.78;;;23.38;100.00
63190;BME280;49286;44.460;26.114;2023-07-31T07:06:22;100011.09;;;23.55;100.00
63190;BME280;49286;44.460;26.114;2023-07-31T07:08:48;99949.66;;;22.77;100.00
63190;BME280;49286;44.460;26.114;2023-07-31T07:11:14;100047.69;;;24.00;100.00
63190;BME280;49286;44.460;26.114;2023-07-31T07:13:39;100058.00;;;24.07;100.00
63190;BME280;49286;44.460;26.114;2023-07-31T07:16:05;100026.94;;;23.74;100.00
63190;BME280;49286;44.460;26.114;2023-07-31T07:18:30;100061.66;;;24.20;100.00
63190;BME280;49286;44.460;26.114;2023-07-31T07:20:56;99955.63;;;23.57;100.00
63190;BME280;49286;44.460;26.114;2023-07-31T07:23:23;99971.38;;;22.87;100.00
63190;BME280;49286;44.460;26.114;2023-07-31T07:25:48;100059.25;;;23.71;100.00
63190;BME280;49286;44.460;26.114;2023-07-31T07:28:14;100049.78;;;24.38;100.00
63190;BME280;49286;44.460;26.114;2023-07-31T07:30:39;99978.47;;;22.72;100.00
63190;BME280;49286;44.460;26.114;2023-07-31T07:33:05;100062.59;;;22.66;100.00
63190;BME280;49286;44.460;26.114;2023-07-31T07:35:33;100088.34;;;23.16;100.00
63190;BME280;49286;44.460;26.114;2023-07-31T07:37:59;100089.75;;;23.54;100.00
63190;BME280;49286;44.460;26.114;2023-07-31T07:40:26;100077.31;;;23.97;100.00
63190;BME280;49286;44.460;26.114;2023-07-31T07:42:51;99989.75;;;22.93;100.00
63190;BME280;49286;44.460;26.114;2023-07-31T07:45:17;99983.72;;;23.35;100.00
63190;BME280;49286;44.460;26.114;2023-07-31T07:47:42;100073.50;;;24.01;100.00
63190;BME280;49286;44.460;26.114;2023-07-31T07:50:08;100091.06;;;24.36;100.00
63190;BME280;49286;44.460;26.114;2023-07-31T07:52:34;100088.06;;;23.37;100.00
63190;BME280;49286;44.460;26.114;2023-07-31T07:54:59;100103.16;;;23.38;100.00
63190;BME280;49286;44.460;26.114;2023-07-31T07:57:26;100080.16;;;22.88;100.00
63190;BME280;49286;44.460;26.114;2023-07-31T07:59:51;100089.66;;;22.11;100.00
63190;BME280;49286;44.460;26.114;2023-07-31T08:02:16;100114.13;;;22.70;100.00
63190;BME280;49286;44.460;26.114;2023-07-31T08:04:42;100019.66;;;22.85;100.00
63190;BME280;49286;44.460;26.114;2023-07-31T08:07:07;100074.69;;;22.89;100.00
63190;BME280;49286;44.460;26.114;2023-07-31T08:09:33;100101.81;;;22.50;100.00
63190;BME280;49286;44.460;26.114;2023-07-31T08:11:58;100098.59;;;23.40;100.00
63190;BME280;49286;44.460;26.114;2023-07-31T08:14:28;99987.88;;;22.95;100.00
63190;BME280;49286;44.460;26.114;2023-07-31T08:16:53;99984.50;;;23.37;100.00
63190;BME280;49286;44.460;26.114;2023-07-31T08:19:19;100080.25;;;23.78;100.00
63190;BME280;49286;44.460;26.114;2023-07-31T08:21:44;100001.59;;;22.73;100.00
63190;BME280;49286;44.460;26.114;2023-07-31T08:24:10;100069.19;;;22.92;100.00
63190;BME280;49286;44.460;26.114;2023-07-31T08:26:35;100078.91;;;22.93;100.00
63190;BME280;49286;44.460;26.114;2023-07-31T08:29:00;99998.59;;;22.47;100.00
63190;BME280;49286;44.460;26.114;2023-07-31T08:31:26;100110.22;;;23.09;100.00
63190;BME280;49286;44.460;26.114;2023-07-31T08:33:52;100108.69;;;22.87;100.00
63190;BME280;49286;44.460;26.114;2023-07-31T08:36:17;100014.31;;;22.20;100.00
63190;BME280;49286;44.460;26.114;2023-07-31T08:38:45;100104.38;;;22.85;100.00
63190;BME280;49286;44.460;26.114;2023-07-31T08:41:10;100119.03;;;22.77;100.00
63190;BME280;49286;44.460;26.114;2023-07-31T08:43:38;100029.75;;;22.15;100.00
63190;BME280;49286;44.460;26.114;2023-07-31T08:46:04;100135.13;;;22.93;100.00
63190;BME280;49286;44.460;26.114;2023-07-31T08:48:31;100122.94;;;22.88;100.00
63190;BME280;49286;44.460;26.114;2023-07-31T08:50:57;100057.34;;;22.81;100.00
63190;BME280;49286;44.460;26.114;2023-07-31T08:53:22;100044.53;;;22.38;100.00
63190;BME280;49286;44.460;26.114;2023-07-31T08:55:48;99943.50;;;21.62;100.00
63190;BME280;49286;44.460;26.114;2023-07-31T08:58:14;100119.75;;;22.97;100.00
63190;BME280;49286;44.460;26.114;2023-07-31T09:00:42;100140.38;;;22.79;100.00
63190;BME280;49286;44.460;26.114;2023-07-31T09:03:13;100046.66;;;22.16;100.00
63190;BME280;49286;44.460;26.114;2023-07-31T09:05:42;100161.06;;;22.75;100.00
63190;BME280;49286;44.460;26.114;2023-07-31T09:08:09;100149.75;;;22.70;100.00
63190;BME280;49286;44.460;26.114;2023-07-31T09:10:43;100152.91;;;22.45;100.00
63190;BME280;49286;44.460;26.114;2023-07-31T09:13:09;100154.94;;;22.58;100.00
63190;BME280;49286;44.460;26.114;2023-07-31T09:15:36;100105.63;;;22.46;100.00
63190;BME280;49286;44.460;26.114;2023-07-31T09:18:03;100059.16;;;22.48;100.00
63190;BME280;49286;44.460;26.114;2023-07-31T09:20:30;100078.66;;;22.50;100.00
63190;BME280;49286;44.460;26.114;2023-07-31T09:23:04;100035.94;;;22.49;100.00
63190;BME280;49286;44.460;26.114;2023-07-31T09:25:30;100024.56;;;22.12;100.00
63190;BME280;49286;44.460;26.114;2023-07-31T09:28:06;100135.03;;;22.95;100.00
63190;BME280;49286;44.460;26.114;2023-07-31T09:30:48;99947.16;;;21.61;100.00
63190;BME280;49286;44.460;26.114;2023-07-31T09:33:14;100130.00;;;22.89;100.00
63190;BME280;49286;44.460;26.114;2023-07-31T09:35:40;100147.56;;;22.94;100.00
63190;BME280;49286;44.460;26.114;2023-07-31T09:38:10;100137.00;;;22.91;100.00
63190;BME280;49286;44.460;26.114;2023-07-31T09:40:38;100022.59;;;22.65;100.00
63190;BME280;49286;44.460;26.114;2023-07-31T09:43:09;100034.91;;;22.99;100.00
63190;BME280;49286;44.460;26.114;2023-07-31T09:45:38;100050.72;;;22.72;100.00
63190;BME280;49286;44.460;26.114;2023-07-31T09:48:07;100065.56;;;23.09;100.00
63190;BME280;49286;44.460;26.114;2023-07-31T09:50:36;100039.69;;;23.40;100.00
63190;BME280;49286;44.460;26.114;2023-07-31T09:53:03;100121.31;;;23.49;100.00
63190;BME280;49286;44.460;26.114;2023-07-31T09:55:29;100111.44;;;23.49;100.00
63190;BME280;49286;44.460;26.114;2023-07-31T09:57:57;100026.25;;;22.94;100.00
63190;BME280;49286;44.460;26.114;2023-07-31T10:00:23;100120.56;;;23.77;100.00
63190;BME280;49286;44.460;26.114;2023-07-31T10:02:52;100036.63;;;22.84;100.00
63190;BME280;49286;44.460;26.114;2023-07-31T10:05:19;100027.06;;;23.12;100.00
63190;BME280;49286;44.460;26.114;2023-07-31T10:07:51;100138.16;;;23.81;100.00
63190;BME280;49286;44.460;26.114;2023-07-31T10:10:20;100103.25;;;23.83;100.00
63190;BME280;49286;44.460;26.114;2023-07-31T10:12:48;100035.34;;;23.07;100.00
63190;BME280;49286;44.460;26.114;2023-07-31T10:15:15;100133.06;;;23.30;100.00
63190;BME280;49286;44.460;26.114;2023-07-31T10:17:40;100022.66;;;22.79;100.00
63190;BME280;49286;44.460;26.114;2023-07-31T10:20:07;100107.19;;;23.61;100.00
63190;BME280;49286;44.460;26.114;2023-07-31T10:22:34;100100.31;;;24.16;100.00
63190;BME280;49286;44.460;26.114;2023-07-31T10:25:00;100118.66;;;24.23;100.00
63190;BME280;49286;44.460;26.114;2023-07-31T10:27:26;100102.00;;;24.61;100.00
63190;BME280;49286;44.460;26.114;2023-07-31T10:29:54;100077.44;;;24.39;100.00
63190;BME280;49286;44.460;26.114;2023-07-31T10:32:21;100106.97;;;25.90;100.00
63190;BME280;49286;44.460;26.114;2023-07-31T10:34:48;100005.41;;;26.20;100.00
63190;BME280;49286;44.460;26.114;2023-07-31T10:37:50;100101.91;;;26.50;100.00
63190;BME280;49286;44.460;26.114;2023-07-31T10:40:23;100031.88;;;26.88;100.00
63190;BME280;49286;44.460;26.114;2023-07-31T10:42:53;100095.31;;;25.10;100.00
63190;BME280;49286;44.460;26.114;2023-07-31T10:45:39;100089.34;;;25.99;100.00
63190;BME280;49286;44.460;26.114;2023-07-31T10:48:12;100075.66;;;26.15;100.00
63190;BME280;49286;44.460;26.114;2023-07-31T10:50:47;100106.59;;;25.82;100.00
63190;BME280;49286;44.460;26.114;2023-07-31T10:53:33;100099.66;;;24.84;100.00
63190;BME280;49286;44.460;26.114;2023-07-31T10:56:06;100099.34;;;24.89;100.00
63190;BME280;49286;44.460;26.114;2023-07-31T10:58:32;100096.44;;;25.06;100.00
63190;BME280;49286;44.460;26.114;2023-07-31T11:01:00;99994.94;;;24.71;100.00
63190;BME280;49286;44.460;26.114;2023-07-31T11:03:49;100084.09;;;24.48;100.00
63190;BME280;49286;44.460;26.114;2023-07-31T11:06:15;100061.75;;;25.57;100.00
63190;BME280;49286;44.460;26.114;2023-07-31T11:08:43;99950.56;;;25.20;100.00
63190;BME280;49286;44.460;26.114;2023-07-31T11:11:10;100079.22;;;24.54;100.00
63190;BME280;49286;44.460;26.114;2023-07-31T11:16:06;100071.28;;;25.48;100.00
63190;BME280;49286;44.460;26.114;2023-07-31T11:18:31;99977.06;;;24.57;100.00
63190;BME280;49286;44.460;26.114;2023-07-31T11:20:57;100087.25;;;24.69;100.00
63190;BME280;49286;44.460;26.114;2023-07-31T11:23:23;99984.34;;;24.41;100.00
63190;BME280;49286;44.460;26.114;2023-07-31T11:25:49;100066.06;;;24.64;100.00
63190;BME280;49286;44.460;26.114;2023-07-31T11:28:17;100069.50;;;24.09;100.00
63190;BME280;49286;44.460;26.114;2023-07-31T11:30:44;100068.34;;;24.41;100.00
63190;BME280;49286;44.460;26.114;2023-07-31T11:33:12;100047.66;;;24.29;100.00
63190;BME280;49286;44.460;26.114;2023-07-31T11:35:48;100082.81;;;24.25;100.00
63190;BME280;49286;44.460;26.114;2023-07-31T11:38:32;100070.09;;;24.57;100.00
63190;BME280;49286;44.460;26.114;2023-07-31T11:41:02;100069.63;;;24.21;100.00
63190;BME280;49286;44.460;26.114;2023-07-31T11:43:30;100009.47;;;24.11;100.00
63190;BME280;49286;44.460;26.114;2023-07-31T11:45:57;99982.66;;;23.83;100.00
63190;BME280;49286;44.460;26.114;2023-07-31T11:48:28;100060.91;;;24.61;100.00
63190;BME280;49286;44.460;26.114;2023-07-31T11:50:57;99970.50;;;24.20;100.00
63190;BME280;49286;44.460;26.114;2023-07-31T11:56:06;100026.88;;;24.61;100.00
63190;BME280;49286;44.460;26.114;2023-07-31T11:58:33;100055.22;;;24.80;100.00
63190;BME280;49286;44.460;26.114;2023-07-31T12:00:59;99979.63;;;24.86;100.00
63190;BME280;49286;44.460;26.114;2023-07-31T12:03:26;100050.56;;;25.63;100.00
63190;BME280;49286;44.460;26.114;2023-07-31T12:05:53;99919.34;;;24.92;100.00
63190;BME280;49286;44.460;26.114;2023-07-31T12:08:21;100050.19;;;26.08;100.00
63190;BME280;49286;44.460;26.114;2023-07-31T12:10:46;99974.56;;;25.36;100.00
63190;BME280;49286;44.460;26.114;2023-07-31T12:13:23;100038.53;;;25.82;100.00
63190;BME280;49286;44.460;26.114;2023-07-31T12:15:54;99950.59;;;25.45;100.00
63190;BME280;49286;44.460;26.114;2023-07-31T12:18:21;99990.44;;;24.99;100.00
63190;BME280;49286;44.460;26.114;2023-07-31T12:20:54;99958.19;;;24.59;100.00
63190;BME280;49286;44.460;26.114;2023-07-31T12:23:21;99955.28;;;24.89;100.00
63190;BME280;49286;44.460;26.114;2023-07-31T12:28:38;100068.75;;;25.05;100.00
63190;BME280;49286;44.460;26.114;2023-07-31T12:31:05;100054.66;;;25.02;100.00
63190;BME280;49286;44.460;26.114;2023-07-31T12:33:33;100050.66;;;24.95;100.00
63190;BME280;49286;44.460;26.114;2023-07-31T12:36:02;99896.34;;;24.33;100.00
63190;BME280;49286;44.460;26.114;2023-07-31T12:38:28;100009.91;;;25.15;100.00
63190;BME280;49286;44.460;26.114;2023-07-31T12:40:53;99939.97;;;23.94;100.00
63190;BME280;49286;44.460;26.114;2023-07-31T12:43:19;99973.41;;;24.44;100.00